createdAt,value
2023-03-06T00:01:07.090Z,11.68
2023-03-06T00:03:34.041Z,11.07
2023-03-06T00:06:01.840Z,11.50
2023-03-06T00:08:28.976Z,10.38
2023-03-06T00:10:56.540Z,12.25
2023-03-06T00:13:23.585Z,10.95
2023-03-06T00:15:50.189Z,10.73
2023-03-06T00:18:16.902Z,10.82
2023-03-06T00:20:44.110Z,12.05
2023-03-06T00:23:12.018Z,11.23
2023-03-06T00:25:42.932Z,10.95
2023-03-06T00:28:09.763Z,11.70
2023-03-06T00:30:36.604Z,11.63
2023-03-06T00:33:03.326Z,10.63
2023-03-06T00:35:30.542Z,12.15
2023-03-06T00:37:57.161Z,10.77
2023-03-06T00:40:23.799Z,11.98
2023-03-06T00:42:50.563Z,11.93
2023-03-06T00:45:19.362Z,11.13
2023-03-06T00:47:45.976Z,12.02
2023-03-06T00:50:12.472Z,10.98
2023-03-06T00:52:39.204Z,10.90
2023-03-06T00:55:06.332Z,11.63
2023-03-06T00:57:32.820Z,12.35
2023-03-06T00:59:59.571Z,11.18
2023-03-06T01:02:28.752Z,12.05
2023-03-06T01:04:55.687Z,11.30
2023-03-06T01:07:22.236Z,12.30
2023-03-06T01:09:50.361Z,11.65
2023-03-06T01:12:16.856Z,11.95
2023-03-06T01:14:43.499Z,12.18
2023-03-06T01:17:10.456Z,12.60
2023-03-06T01:19:37.198Z,11.93
2023-03-06T01:22:04.070Z,12.73
2023-03-06T01:24:31.525Z,12.30
2023-03-06T01:26:58.068Z,12.82
2023-03-06T01:29:24.590Z,13.27
2023-03-06T01:31:51.164Z,12.82
2023-03-06T01:34:17.969Z,12.63
2023-03-06T01:36:44.967Z,12.45
2023-03-06T01:39:11.759Z,12.90
2023-03-06T01:41:38.425Z,11.82
2023-03-06T01:44:05.015Z,12.70
2023-03-06T01:46:38.794Z,12.13
2023-03-06T01:49:26.235Z,13.05
2023-03-06T01:52:02.356Z,12.85
2023-03-06T01:54:28.872Z,12.38
2023-03-06T01:57:02.936Z,12.32
2023-03-06T01:59:30.476Z,12.07
2023-03-06T02:01:59.894Z,12.52
2023-03-06T02:04:26.602Z,13.63
2023-03-06T02:06:53.908Z,13.18
2023-03-06T02:09:20.559Z,12.57
2023-03-06T02:11:47.162Z,12.27
2023-03-06T02:14:16.722Z,11.90
2023-03-06T02:16:44.123Z,12.75
2023-03-06T02:19:44.414Z,12.43
2023-03-06T02:22:11.319Z,13.13
2023-03-06T02:24:56.410Z,12.60
2023-03-06T02:27:24.997Z,12.90
2023-03-06T02:29:54.342Z,14.57
2023-03-06T02:32:21.334Z,12.85
2023-03-06T02:34:56.835Z,12.50
2023-03-06T02:37:25.236Z,11.55
2023-03-06T02:40:09.229Z,11.85
2023-03-06T02:42:36.257Z,12.43
2023-03-06T02:45:05.179Z,12.38
2023-03-06T02:47:31.925Z,12.40
2023-03-06T02:49:58.923Z,12.60
2023-03-06T02:52:25.441Z,11.50
2023-03-06T02:54:51.935Z,12.45
2023-03-06T02:57:18.441Z,12.40
2023-03-06T02:59:45.669Z,12.52
2023-03-06T03:02:12.227Z,11.38
2023-03-06T03:04:38.777Z,11.98
2023-03-06T03:07:06.043Z,11.90
2023-03-06T03:09:32.618Z,14.18
2023-03-06T03:11:59.184Z,11.82
2023-03-06T03:14:25.696Z,12.40
2023-03-06T03:16:52.491Z,12.35
2023-03-06T03:19:19.140Z,13.18
2023-03-06T03:21:46.053Z,12.70
2023-03-06T03:24:12.982Z,12.13
2023-03-06T03:26:42.809Z,12.25
2023-03-06T03:29:14.203Z,12.80
2023-03-06T03:31:40.961Z,12.88
2023-03-06T03:34:07.543Z,12.40
2023-03-06T03:36:37.984Z,13.23
2023-03-06T03:39:06.369Z,14.00
2023-03-06T03:41:33.793Z,12.80
2023-03-06T03:44:02.453Z,12.85
2023-03-06T03:46:29.198Z,13.63
2023-03-06T03:48:56.767Z,14.30
2023-03-06T03:51:23.348Z,12.27
2023-03-06T03:53:53.414Z,12.93
2023-03-06T03:56:23.847Z,12.63
2023-03-06T03:59:00.075Z,12.35
2023-03-06T04:01:31.943Z,13.43
2023-03-06T04:03:59.107Z,13.02
2023-03-06T04:06:25.888Z,11.32
2023-03-06T04:08:52.485Z,12.65
2023-03-06T04:11:19.154Z,14.10
2023-03-06T04:13:46.067Z,13.15
2023-03-06T04:16:13.345Z,14.02
2023-03-06T04:18:40.333Z,13.45
2023-03-06T04:21:07.545Z,14.30
2023-03-06T04:23:34.235Z,13.32
2023-03-06T04:26:00.826Z,13.35
2023-03-06T04:28:27.934Z,13.48
2023-03-06T04:30:54.965Z,12.50
2023-03-06T04:33:22.608Z,12.75
2023-03-06T04:35:49.318Z,13.18
2023-03-06T04:38:21.482Z,13.50
2023-03-06T04:40:48.399Z,12.90
2023-03-06T04:43:15.074Z,12.57
2023-03-06T04:45:41.748Z,12.82
2023-03-06T04:48:08.323Z,13.40
2023-03-06T04:50:35.076Z,13.15
2023-03-06T04:53:02.269Z,12.75
2023-03-06T04:55:28.952Z,13.85
2023-03-06T04:57:56.720Z,12.57
2023-03-06T05:00:27.162Z,14.25
2023-03-06T05:02:53.680Z,12.88
2023-03-06T05:05:20.184Z,13.57
2023-03-06T05:07:46.731Z,13.30
2023-03-06T05:10:15.989Z,12.95
2023-03-06T05:12:43.393Z,13.38
2023-03-06T05:15:11.468Z,12.40
2023-03-06T05:17:38.782Z,13.48
2023-03-06T05:20:07.852Z,13.68
2023-03-06T05:22:34.628Z,13.23
2023-03-06T05:25:01.455Z,13.18
2023-03-06T05:27:28.386Z,14.38
2023-03-06T05:29:54.977Z,14.27
2023-03-06T05:32:22.580Z,13.25
2023-03-06T05:34:49.411Z,13.82
2023-03-06T05:37:15.936Z,14.13
2023-03-06T05:39:42.662Z,15.93
2023-03-06T05:42:09.812Z,15.75
2023-03-06T05:44:36.709Z,15.52
2023-03-06T05:47:03.925Z,15.35
2023-03-06T05:49:35.653Z,16.08
2023-03-06T05:54:29.042Z,14.43
2023-03-06T05:56:55.571Z,15.63
2023-03-06T05:59:22.083Z,15.50
2023-03-06T06:01:48.657Z,14.85
2023-03-06T06:04:15.493Z,14.45
2023-03-06T06:06:42.011Z,14.75
2023-03-06T06:09:08.478Z,15.73
2023-03-06T06:11:35.008Z,16.10
2023-03-06T06:14:01.509Z,15.48
2023-03-06T06:16:27.990Z,14.65
2023-03-06T06:18:54.486Z,16.08
2023-03-06T06:21:21.026Z,14.05
2023-03-06T06:23:47.534Z,15.75
2023-03-06T06:26:14.069Z,14.90
2023-03-06T06:28:40.643Z,13.88
2023-03-06T06:31:11.921Z,14.38
2023-03-06T06:33:39.650Z,14.35
2023-03-06T06:36:14.201Z,14.85
2023-03-06T06:38:40.692Z,14.60
2023-03-06T06:41:33.347Z,15.40
2023-03-06T06:43:53.671Z,13.70
2023-03-06T06:47:05.842Z,15.07
2023-03-06T06:49:06.854Z,14.65
2023-03-06T06:51:34.000Z,13.73
2023-03-06T06:54:01.117Z,13.75
2023-03-06T06:56:27.597Z,14.52
2023-03-06T06:59:01.346Z,13.05
2023-03-06T07:01:37.002Z,14.95
2023-03-06T07:04:03.544Z,13.45
2023-03-06T07:06:30.111Z,14.10
2023-03-06T07:08:57.482Z,14.85
2023-03-06T07:11:24.220Z,13.75
2023-03-06T07:13:50.705Z,13.10
2023-03-06T07:16:17.397Z,13.57
2023-03-06T07:18:44.453Z,13.63
2023-03-06T07:21:11.179Z,12.75
2023-03-06T07:23:37.805Z,13.20
2023-03-06T07:26:04.619Z,12.52
2023-03-06T07:28:40.092Z,11.77
2023-03-06T07:31:16.582Z,11.63
2023-03-06T07:33:43.156Z,11.32
2023-03-06T07:36:12.208Z,12.73
2023-03-06T07:38:39.392Z,11.77
2023-03-06T07:41:06.606Z,12.25
2023-03-06T07:43:33.102Z,12.07
2023-03-06T07:46:02.817Z,12.63
2023-03-06T07:48:29.454Z,12.93
2023-03-06T07:51:01.182Z,12.45
2023-03-06T07:55:55.285Z,10.82
2023-03-06T07:58:22.098Z,10.98
2023-03-06T08:00:48.854Z,11.25
2023-03-06T08:03:15.983Z,11.38
2023-03-06T08:05:42.671Z,11.18
2023-03-06T08:08:09.218Z,10.43
2023-03-06T08:10:35.762Z,11.02
2023-03-06T08:13:02.310Z,10.98
2023-03-06T08:15:28.864Z,10.65
2023-03-06T08:17:55.396Z,9.43
2023-03-06T08:20:22.171Z,8.70
2023-03-06T08:22:48.654Z,8.48
2023-03-06T08:25:15.130Z,8.30
2023-03-06T08:27:41.944Z,7.75
2023-03-06T08:30:09.229Z,7.72
2023-03-06T08:32:36.564Z,7.85
2023-03-06T08:35:04.956Z,7.95
2023-03-06T08:37:31.930Z,8.18
2023-03-06T08:39:58.490Z,8.38
2023-03-06T08:42:25.092Z,7.30
2023-03-06T08:44:51.688Z,8.25
2023-03-06T08:47:18.237Z,7.43
2023-03-06T08:49:44.764Z,7.68
2023-03-06T08:52:11.333Z,7.18
2023-03-06T08:54:37.843Z,8.25
2023-03-06T08:57:04.884Z,8.27
2023-03-06T08:59:32.547Z,7.93
2023-03-06T09:01:59.044Z,8.77
2023-03-06T09:04:25.522Z,8.23
2023-03-06T09:06:53.122Z,9.13
2023-03-06T09:09:20.989Z,7.93
2023-03-06T09:11:47.505Z,8.43
2023-03-06T09:14:14.106Z,9.73
2023-03-06T09:16:40.725Z,9.40
2023-03-06T09:19:07.270Z,8.30
2023-03-06T09:21:34.087Z,7.97
2023-03-06T09:24:00.770Z,9.35
2023-03-06T09:26:39.464Z,11.55
2023-03-06T09:29:10.188Z,10.50
2023-03-06T09:31:36.798Z,9.40
2023-03-06T09:34:03.287Z,10.88
2023-03-06T09:36:29.797Z,11.75
2023-03-06T09:38:56.477Z,15.15
2023-03-06T09:41:25.364Z,11.57
2023-03-06T09:43:56.226Z,14.32
2023-03-06T09:46:42.431Z,16.50
2023-03-06T09:49:34.769Z,18.92
2023-03-06T09:52:10.508Z,13.57
2023-03-06T09:54:46.302Z,16.88
2023-03-06T09:57:18.353Z,15.63
2023-03-06T09:59:48.355Z,15.75
2023-03-06T10:02:22.779Z,15.15
2023-03-06T10:04:54.817Z,16.40
2023-03-06T10:07:32.050Z,12.40
2023-03-06T10:10:07.358Z,12.70
2023-03-06T10:12:41.251Z,12.02
2023-03-06T10:15:16.476Z,11.55
2023-03-06T10:17:44.137Z,11.98
2023-03-06T10:20:16.920Z,13.15
2023-03-06T10:23:00.661Z,10.80
2023-03-06T10:25:43.265Z,10.40
2023-03-06T10:28:29.870Z,11.45
2023-03-06T10:31:08.613Z,10.35
2023-03-06T10:33:54.929Z,10.98
2023-03-06T10:36:25.709Z,10.40
2023-03-06T10:38:52.614Z,10.47
2023-03-06T10:41:31.620Z,9.18
2023-03-06T10:44:01.160Z,9.07
2023-03-06T10:46:31.681Z,8.32
2023-03-06T10:49:07.491Z,7.38
2023-03-06T10:51:34.072Z,6.93
2023-03-06T10:54:03.268Z,6.82
2023-03-06T10:56:34.304Z,6.72
2023-03-06T10:59:17.727Z,6.82
2023-03-06T11:01:45.492Z,5.80
2023-03-06T11:04:37.234Z,5.53
2023-03-06T11:07:19.064Z,6.07
2023-03-06T11:09:58.018Z,6.22
2023-03-06T11:12:31.810Z,6.20
2023-03-06T11:15:20.760Z,5.20
2023-03-06T11:18:09.154Z,5.10
2023-03-06T11:20:51.538Z,4.78
2023-03-06T11:23:33.188Z,5.22
2023-03-06T11:26:02.997Z,4.13
2023-03-06T11:28:42.267Z,4.43
2023-03-06T11:31:25.625Z,4.75
2023-03-06T11:33:59.130Z,4.70
2023-03-06T11:36:30.201Z,3.67
2023-03-06T11:38:56.755Z,3.55
2023-03-06T11:41:42.529Z,3.75
2023-03-06T11:44:36.905Z,3.47
2023-03-06T11:47:14.545Z,3.70
2023-03-06T11:49:51.350Z,3.60
2023-03-06T11:52:32.257Z,3.60
2023-03-06T11:54:58.837Z,3.77
2023-03-06T11:57:33.070Z,2.80
2023-03-06T12:00:22.142Z,3.13
2023-03-06T12:03:12.523Z,2.58
2023-03-06T12:05:47.181Z,2.45
2023-03-06T12:08:21.255Z,2.75
2023-03-06T12:11:20.630Z,2.50
2023-03-06T12:14:14.396Z,2.85
2023-03-06T12:17:07.051Z,2.53
2023-03-06T12:19:39.696Z,2.90
2023-03-06T12:22:21.532Z,2.55
2023-03-06T12:25:21.647Z,3.03
2023-03-06T12:28:28.011Z,2.17
2023-03-06T12:31:06.956Z,2.70
2023-03-06T12:33:54.907Z,2.58
2023-03-06T12:36:28.682Z,2.50
2023-03-06T12:39:29.343Z,3.30
2023-03-06T12:42:30.013Z,2.30
2023-03-06T12:45:11.818Z,1.90
2023-03-06T12:50:22.132Z,2.10
2023-03-06T12:52:49.228Z,2.13
2023-03-06T12:55:21.177Z,1.58
2023-03-06T12:57:49.404Z,1.90
2023-03-06T13:01:07.827Z,1.73
2023-03-06T13:03:36.297Z,1.80
2023-03-06T13:06:30.920Z,1.92
2023-03-06T13:09:11.191Z,2.00
2023-03-06T13:11:55.903Z,1.95
2023-03-06T13:15:14.419Z,1.70
2023-03-06T13:17:41.041Z,1.23
2023-03-06T13:20:13.837Z,1.40
2023-03-06T13:22:44.979Z,1.38
2023-03-06T13:25:20.830Z,1.33
2023-03-06T13:27:53.562Z,1.92
2023-03-06T13:30:35.138Z,1.27
2023-03-06T13:33:22.041Z,2.95
2023-03-06T13:35:54.007Z,3.28
2023-03-06T13:38:32.011Z,2.20
2023-03-06T13:41:20.470Z,1.63
2023-03-06T13:43:48.034Z,1.90
2023-03-06T13:46:36.847Z,1.25
2023-03-06T13:49:09.593Z,1.20
2023-03-06T13:51:48.279Z,1.50
2023-03-06T13:54:36.209Z,1.25
2023-03-06T13:57:21.055Z,1.60
2023-03-06T14:00:03.147Z,1.60
2023-03-06T14:03:22.406Z,1.17
2023-03-06T14:05:51.217Z,1.70
2023-03-06T14:08:21.340Z,1.58
2023-03-06T14:10:59.151Z,1.50
2023-03-06T14:13:35.070Z,1.83
2023-03-06T14:16:17.319Z,1.50
2023-03-06T14:18:49.455Z,1.33
2023-03-06T14:21:26.170Z,1.42
2023-03-06T14:24:00.971Z,1.52
2023-03-06T14:26:31.194Z,1.98
2023-03-06T14:29:02.699Z,1.50
2023-03-06T14:31:33.251Z,1.17
2023-03-06T14:34:02.425Z,1.27
2023-03-06T14:36:50.399Z,1.67
2023-03-06T14:39:34.037Z,1.80
2023-03-06T14:42:07.794Z,1.70
2023-03-06T14:44:34.398Z,1.40
2023-03-06T14:47:31.521Z,1.60
2023-03-06T14:50:27.724Z,1.38
2023-03-06T14:52:57.582Z,1.77
2023-03-06T14:55:26.829Z,1.30
2023-03-06T14:58:10.307Z,1.45
2023-03-06T15:00:41.487Z,1.60
2023-03-06T15:03:19.162Z,1.38
2023-03-06T15:05:47.346Z,1.70
2023-03-06T15:08:25.495Z,1.52
2023-03-06T15:10:59.129Z,1.30
2023-03-06T15:13:28.674Z,1.30
2023-03-06T15:16:03.123Z,1.40
2023-03-06T15:18:54.846Z,1.90
2023-03-06T15:21:23.809Z,1.27
2023-03-06T15:23:52.776Z,1.50
2023-03-06T15:26:33.685Z,1.10
2023-03-06T15:29:10.192Z,1.60
2023-03-06T15:31:45.363Z,1.45
2023-03-06T15:34:11.867Z,1.50
2023-03-06T15:36:49.110Z,1.20
2023-03-06T15:39:34.069Z,1.50
2023-03-06T15:42:04.934Z,1.52
2023-03-06T15:44:32.546Z,1.75
2023-03-06T15:47:08.455Z,1.67
2023-03-06T15:49:37.379Z,1.70
2023-03-06T15:52:04.399Z,1.38
2023-03-06T15:54:32.826Z,1.40
2023-03-06T15:56:59.854Z,1.40
2023-03-06T15:59:28.441Z,1.38
2023-03-06T16:01:55.023Z,1.50
2023-03-06T16:04:24.254Z,1.20
2023-03-06T16:06:50.811Z,1.00
2023-03-06T16:09:17.541Z,1.75
2023-03-06T16:11:44.823Z,2.38
2023-03-06T16:14:25.922Z,2.38
2023-03-06T16:16:53.924Z,1.70
2023-03-06T16:19:27.436Z,1.40
2023-03-06T16:21:55.738Z,1.40
2023-03-06T16:24:23.560Z,1.13
2023-03-06T16:26:52.324Z,1.75
2023-03-06T16:29:21.640Z,1.73
2023-03-06T16:31:48.863Z,1.15
2023-03-06T16:34:15.824Z,1.58
2023-03-06T16:36:42.768Z,1.48
2023-03-06T16:39:14.494Z,1.60
2023-03-06T16:41:41.255Z,1.48
2023-03-06T16:44:08.300Z,1.63
2023-03-06T16:46:38.587Z,1.73
2023-03-06T16:49:05.211Z,1.85
2023-03-06T16:51:31.745Z,1.80
2023-03-06T16:53:58.231Z,1.50
2023-03-06T16:56:25.295Z,1.52
2023-03-06T16:58:51.844Z,1.15
2023-03-06T17:01:19.710Z,1.30
2023-03-06T17:03:46.344Z,1.10
2023-03-06T17:06:21.510Z,1.25
2023-03-06T17:08:49.377Z,1.52
2023-03-06T17:11:16.637Z,1.90
2023-03-06T17:13:44.281Z,1.58
2023-03-06T17:16:14.552Z,2.58
2023-03-06T17:18:41.880Z,1.45
2023-03-06T17:21:08.829Z,1.42
2023-03-06T17:23:35.360Z,1.48
2023-03-06T17:26:13.992Z,1.42
2023-03-06T17:28:41.352Z,1.42
2023-03-06T17:31:16.711Z,1.35
2023-03-06T17:33:44.431Z,2.47
2023-03-06T17:36:12.022Z,1.85
2023-03-06T17:38:38.612Z,6.90
2023-03-06T17:41:07.316Z,3.90
2023-03-06T17:43:34.107Z,14.45
2023-03-06T17:46:05.710Z,6.07
2023-03-06T17:50:59.084Z,4.80
2023-03-06T17:53:26.170Z,3.67
2023-03-06T17:55:52.815Z,2.58
2023-03-06T17:58:19.604Z,3.58
2023-03-06T18:00:46.404Z,3.22
2023-03-06T18:03:12.968Z,4.00
2023-03-06T18:05:39.568Z,3.88
2023-03-06T18:08:06.677Z,4.20
2023-03-06T18:10:33.267Z,3.63
2023-03-06T18:12:59.838Z,4.38
2023-03-06T18:15:26.596Z,4.55
2023-03-06T18:17:53.103Z,6.07
2023-03-06T18:20:19.751Z,3.40
2023-03-06T18:22:46.253Z,3.15
2023-03-06T18:25:12.694Z,2.72
2023-03-06T18:27:39.192Z,2.28
2023-03-06T18:30:06.196Z,2.58
2023-03-06T18:32:32.737Z,2.60
2023-03-06T18:34:59.237Z,3.53
2023-03-06T18:37:25.756Z,3.35
2023-03-06T18:39:52.298Z,3.47
2023-03-06T18:42:18.834Z,3.55
2023-03-06T18:44:45.317Z,3.50
2023-03-06T18:47:11.825Z,6.85
2023-03-06T18:49:39.944Z,7.63
2023-03-06T18:52:07.231Z,7.97
2023-03-06T18:54:34.096Z,9.15
2023-03-06T18:57:00.696Z,12.00
2023-03-06T18:59:27.169Z,9.23
2023-03-06T19:01:53.645Z,3.95
2023-03-06T19:04:20.239Z,8.57
2023-03-06T19:06:46.838Z,6.93
2023-03-06T19:09:13.370Z,4.32
2023-03-06T19:11:39.950Z,3.40
2023-03-06T19:14:06.804Z,3.08
2023-03-06T19:16:33.634Z,4.45
2023-03-06T19:19:00.283Z,3.20
2023-03-06T19:21:28.284Z,2.90
2023-03-06T19:23:55.604Z,5.20
2023-03-06T19:26:22.497Z,3.28
2023-03-06T19:28:49.688Z,3.33
2023-03-06T19:31:25.364Z,3.50
2023-03-06T19:33:53.448Z,2.38
2023-03-06T19:36:21.399Z,2.97
2023-03-06T19:38:47.959Z,3.20
2023-03-06T19:41:14.568Z,2.90
2023-03-06T19:43:42.397Z,3.08
2023-03-06T19:46:13.352Z,3.60
2023-03-06T19:48:41.400Z,3.03
2023-03-06T19:51:08.586Z,3.13
2023-03-06T19:53:35.482Z,2.90
2023-03-06T19:56:04.153Z,2.63
2023-03-06T19:58:30.677Z,3.47
2023-03-06T20:01:10.367Z,3.95
2023-03-06T20:03:37.338Z,4.22
2023-03-06T20:06:04.311Z,3.28
2023-03-06T20:08:30.799Z,3.90
2023-03-06T20:10:57.417Z,2.88
2023-03-06T20:13:23.956Z,3.85
2023-03-06T20:15:50.502Z,3.20
2023-03-06T20:18:17.005Z,3.97
2023-03-06T20:20:43.521Z,3.65
2023-03-06T20:23:10.727Z,2.95
2023-03-06T20:25:37.670Z,2.90
2023-03-06T20:28:05.143Z,2.00
2023-03-06T20:30:38.147Z,2.63
2023-03-06T20:33:05.361Z,2.88
2023-03-06T20:35:32.130Z,3.22
2023-03-06T20:37:58.683Z,2.83
2023-03-06T20:40:25.293Z,3.08
2023-03-06T20:42:51.871Z,2.78
2023-03-06T20:45:18.376Z,2.75
2023-03-06T20:47:44.866Z,3.08
2023-03-06T20:50:11.666Z,3.00
2023-03-06T20:52:38.172Z,3.08
2023-03-06T20:55:05.344Z,3.42
2023-03-06T20:57:31.844Z,2.65
2023-03-06T20:59:58.635Z,2.53
2023-03-06T21:02:25.121Z,3.28
2023-03-06T21:04:51.653Z,3.40
2023-03-06T21:07:18.432Z,2.90
2023-03-06T21:09:44.921Z,2.80
2023-03-06T21:12:11.427Z,2.75
2023-03-06T21:14:37.902Z,2.67
2023-03-06T21:17:04.433Z,3.75
2023-03-06T21:19:30.923Z,3.65
2023-03-06T21:21:57.404Z,3.20
2023-03-06T21:24:23.949Z,3.67
2023-03-06T21:26:50.561Z,3.97
2023-03-06T21:29:17.143Z,2.67
2023-03-06T21:31:43.677Z,3.33
2023-03-06T21:34:10.273Z,3.22
2023-03-06T21:36:37.017Z,2.78
2023-03-06T21:39:04.415Z,2.90
2023-03-06T21:41:31.016Z,2.80
2023-03-06T21:44:02.929Z,2.40
2023-03-06T21:46:30.055Z,3.08
2023-03-06T21:48:57.389Z,2.17
2023-03-06T21:51:25.659Z,2.55
2023-03-06T21:53:53.076Z,4.68
2023-03-06T21:56:21.700Z,3.35
2023-03-06T21:58:48.259Z,3.08
2023-03-06T22:01:24.054Z,3.17
2023-03-06T22:03:51.118Z,2.75
2023-03-06T22:06:19.903Z,3.00
2023-03-06T22:08:46.882Z,2.83
2023-03-06T22:11:16.516Z,3.42
2023-03-06T22:13:43.645Z,2.78
2023-03-06T22:16:11.183Z,3.08
2023-03-06T22:18:38.000Z,2.45
2023-03-06T22:21:09.794Z,2.33
2023-03-06T22:23:36.641Z,2.67
2023-03-06T22:26:05.345Z,2.38
2023-03-06T22:28:32.074Z,2.00
2023-03-06T22:31:09.861Z,2.03
2023-03-06T22:33:37.403Z,1.50
2023-03-06T22:36:10.457Z,2.10
2023-03-06T22:38:39.679Z,2.13
2023-03-06T22:41:07.158Z,2.17
2023-03-06T22:43:34.582Z,2.13
2023-03-06T22:46:03.128Z,2.20
2023-03-06T22:48:29.900Z,1.73
2023-03-06T22:51:01.781Z,2.00
2023-03-06T22:53:28.291Z,1.50
2023-03-06T22:55:58.264Z,2.42
2023-03-06T22:58:25.466Z,1.83
2023-03-06T23:00:52.020Z,1.50
2023-03-06T23:03:18.577Z,1.60
2023-03-06T23:05:45.150Z,1.90
2023-03-06T23:08:11.658Z,1.70
2023-03-06T23:10:38.958Z,2.10
2023-03-06T23:13:23.878Z,2.13
2023-03-06T23:16:09.837Z,1.48
2023-03-06T23:18:54.844Z,3.25
2023-03-06T23:21:41.260Z,1.35
2023-03-06T23:24:26.860Z,1.40
2023-03-06T23:26:53.444Z,1.70
2023-03-06T23:29:19.954Z,1.40
2023-03-06T23:31:46.468Z,2.08
2023-03-06T23:34:12.994Z,1.40
2023-03-06T23:36:39.568Z,1.80
2023-03-06T23:39:06.087Z,1.45
2023-03-06T23:41:32.649Z,1.48
2023-03-06T23:43:59.409Z,1.38
2023-03-06T23:46:26.133Z,1.60
2023-03-06T23:48:52.964Z,1.60
2023-03-06T23:51:22.200Z,1.63
2023-03-06T23:53:55.597Z,1.40
2023-03-06T23:56:22.702Z,1.30
2023-03-06T23:58:49.251Z,1.95
